Terminal Aerodrome Forecast
Issued by NWS

Home | Current Version | Previous Version | Text Only | Print | Product List | Glossary On
Versions: 1 2 3 4 5 6 7 8 9 10 11 12 13
101
FTUS46 KMFR 020544
TAFRBG
TAF
KRBG 020544Z 0206/0306 VRB02KT P6SM SKC
     FM022200 35007KT P6SM SCT050
     FM030400 VRB03KT P6SM SCT050=

USA.gov is the U.S. government's official web portal to all federal, state and local government web resources and services.